Time;durP1;ratioP1;P1;durP2;ratioP2;P2;SDS_P1;SDS_P2;PMS_P1;PMS_P2;Temp;Humidity;BMP_temperature;BMP_pressure;BME280_temperature;BME280_humidity;BME280_pressure;Samples;Min_cycle;Max_cycle;Signal;HPM_P1;HPM_P2
2023/10/16 00:02:14;;;;;;;2.90;2.70;;;;;;;3.27;100.00;96948.09;4953331;28;105645;-78
2023/10/16 00:04:44;;;;;;;5.33;3.17;;;;;;;3.22;100.00;96947.84;4951548;28;101809;-78
2023/10/16 00:07:15;;;;;;;3.30;3.00;;;;;;;3.12;100.00;96940.28;4949232;28;105581;-78
2023/10/16 00:09:40;;;;;;;2.80;2.60;;;;;;;3.06;100.00;96946.28;4949835;28;105104;-78
2023/10/16 00:12:09;;;;;;;3.10;2.83;;;;;;;3.13;100.00;96935.84;4951901;28;102192;-78
2023/10/16 00:14:36;;;;;;;3.30;3.00;;;;;;;3.12;100.00;96940.28;4950265;28;104249;-78
2023/10/16 00:17:08;;;;;;;3.60;3.13;;;;;;;3.12;100.00;96942.09;4951104;28;102755;-78
2023/10/16 00:19:37;;;;;;;3.60;3.30;;;;;;;3.11;100.00;96940.47;4949501;28;102081;-78
2023/10/16 00:22:10;;;;;;;3.03;2.83;;;;;;;3.09;100.00;96942.47;4951592;28;102642;-78
2023/10/16 00:24:38;;;;;;;4.30;3.00;;;;;;;3.14;100.00;96938.28;4953122;28;105702;-80
2023/10/16 00:27:05;;;;;;;3.80;3.30;;;;;;;3.19;100.00;96928.00;4950128;28;105059;-81
2023/10/16 00:29:36;;;;;;;3.93;3.63;;;;;;;3.16;100.00;96930.22;4949510;28;105449;-81
2023/10/16 00:32:07;;;;;;;3.43;3.17;;;;;;;3.04;100.00;96926.47;4950357;28;102002;-80
2023/10/16 00:34:34;;;;;;;3.67;3.37;;;;;;;3.07;100.00;96931.34;4950014;28;104967;-80
2023/10/16 00:37:04;;;;;;;2.83;2.60;;;;;;;2.98;100.00;96929.84;4949441;28;105569;-80
2023/10/16 00:39:32;;;;;;;3.03;2.73;;;;;;;2.86;100.00;96920.88;4950038;28;101993;-79
2023/10/16 00:42:01;;;;;;;2.93;2.70;;;;;;;2.88;100.00;96932.00;4949919;28;105427;-78
2023/10/16 00:44:33;;;;;;;2.63;2.43;;;;;;;2.86;100.00;96926.94;4949621;28;105135;-77
2023/10/16 00:47:05;;;;;;;2.87;2.67;;;;;;;2.92;100.00;96917.47;4953248;28;101870;-77
2023/10/16 00:49:34;;;;;;;3.90;2.87;;;;;;;2.85;100.00;96922.66;4950645;28;102740;-77
2023/10/16 00:52:03;;;;;;;2.80;2.60;;;;;;;2.88;100.00;96921.47;4950021;28;102146;-75
2023/10/16 00:54:38;;;;;;;3.20;2.90;;;;;;;2.84;100.00;96915.00;4949775;28;105114;-75
2023/10/16 00:57:07;;;;;;;2.80;2.60;;;;;;;2.76;100.00;96923.00;4949234;28;105785;-74
2023/10/16 00:59:35;;;;;;;3.33;3.03;;;;;;;2.77;100.00;96911.50;4949987;28;102397;-74
2023/10/16 01:02:13;;;;;;;3.63;3.20;;;;;;;2.73;100.00;96907.63;4949894;28;105335;-74
2023/10/16 01:04:41;;;;;;;3.20;2.90;;;;;;;2.72;100.00;96906.00;4948927;28;104971;-74
2023/10/16 01:07:09;;;;;;;3.43;3.13;;;;;;;2.66;100.00;96902.31;4951042;28;101810;-74
2023/10/16 01:09:36;;;;;;;3.17;2.87;;;;;;;2.70;100.00;96897.50;4952525;28;105789;-74
2023/10/16 01:12:07;;;;;;;2.87;2.67;;;;;;;2.69;100.00;96895.88;4949721;28;102073;-74
2023/10/16 01:14:38;;;;;;;3.10;2.90;;;;;;;2.70;100.00;96898.31;4949312;28;104937;-75
2023/10/16 01:17:08;;;;;;;2.60;2.40;;;;;;;2.67;100.00;96897.91;4948878;28;104490;-75
2023/10/16 01:19:39;;;;;;;2.90;2.70;;;;;;;2.60;100.00;96894.38;4948767;28;101924;-75
2023/10/16 01:22:11;;;;;;;3.03;2.80;;;;;;;2.63;100.00;96891.38;4950766;28;102646;-75
2023/10/16 01:24:48;;;;;;;3.03;2.70;;;;;;;2.62;100.00;96898.44;4948784;28;105689;-75
2023/10/16 01:27:29;;;;;;;3.23;2.90;;;;;;;2.57;100.00;96892.94;4949431;28;102170;-75
2023/10/16 01:29:59;;;;;;;3.00;2.70;;;;;;;2.56;100.00;96896.56;4953609;28;102975;-78
2023/10/16 01:32:30;;;;;;;3.23;2.93;;;;;;;2.47;100.00;96895.06;4949095;28;102402;-78
2023/10/16 01:35:08;;;;;;;3.30;2.83;;;;;;;2.44;100.00;96882.31;4949191;28;106354;-78
2023/10/16 01:37:46;;;;;;;3.30;3.00;;;;;;;2.42;100.00;96873.03;4947834;28;104934;-78
2023/10/16 01:40:25;;;;;;;2.90;2.70;;;;;;;2.34;100.00;96881.00;4949118;28;102172;-79
2023/10/16 01:43:05;;;;;;;2.80;2.60;;;;;;;2.33;100.00;96882.81;4949113;28;105319;-79
2023/10/16 01:45:49;;;;;;;3.40;3.10;;;;;;;2.35;100.00;96882.66;4948562;28;104306;-79
2023/10/16 01:48:25;;;;;;;3.30;3.00;;;;;;;2.31;100.00;96886.63;4948963;28;101887;-80
2023/10/16 01:51:02;;;;;;;3.33;2.90;;;;;;;2.23;100.00;96889.38;4948970;28;105109;-80
2023/10/16 01:53:43;;;;;;;3.93;3.63;;;;;;;2.41;100.00;96884.53;4951962;28;103928;-80
2023/10/16 01:56:38;;;;;;;3.97;3.33;;;;;;;2.47;100.00;96879.31;4949095;28;104952;-80
2023/10/16 01:59:12;;;;;;;3.40;3.10;;;;;;;2.52;100.00;96878.78;4948406;28;105255;-80
2023/10/16 02:01:45;;;;;;;3.63;3.33;;;;;;;2.54;100.00;96882.84;4948872;28;102079;-80
2023/10/16 02:04:20;;;;;;;3.93;3.50;;;;;;;2.33;100.00;96868.88;4949040;28;105034;-80
2023/10/16 02:06:56;;;;;;;5.07;3.30;;;;;;;2.42;100.00;96868.59;4948280;28;105125;-80
2023/10/16 02:09:41;;;;;;;3.73;3.43;;;;;;;2.37;100.00;96875.38;4948987;28;101810;-80
2023/10/16 02:12:24;;;;;;;3.00;2.80;;;;;;;2.22;100.00;96866.75;4948871;28;105542;-80
2023/10/16 02:14:56;;;;;;;4.60;2.90;;;;;;;2.13;100.00;96873.16;4961128;28;104255;-80
2023/10/16 02:17:29;;;;;;;3.30;3.00;;;;;;;2.22;100.00;96872.84;4968690;28;101818;-80
2023/10/16 02:19:59;;;;;;;3.30;3.00;;;;;;;2.25;100.00;96869.03;4947831;28;105758;-80
2023/10/16 02:22:43;;;;;;;3.23;3.03;;;;;;;2.27;100.00;96873.09;4948790;28;101917;-80
2023/10/16 02:25:17;;;;;;;3.70;3.40;;;;;;;2.30;100.00;96869.28;4948741;28;104812;-80
2023/10/16 02:27:50;;;;;;;4.17;3.77;;;;;;;2.32;100.00;96867.28;4947883;28;105391;-78
2023/10/16 02:30:28;;;;;;;3.33;3.10;;;;;;;2.27;100.00;96867.00;4949119;28;102147;-78
2023/10/16 02:33:11;;;;;;;4.63;3.73;;;;;;;2.20;100.00;96868.78;4935714;28;105284;-78
2023/10/16 02:35:38;;;;;;;3.50;3.20;;;;;;;2.09;100.00;96859.56;4952783;28;102991;-79
2023/10/16 02:38:05;;;;;;;3.00;2.80;;;;;;;2.28;100.00;96861.59;4953304;28;101715;-79
2023/10/16 02:40:35;;;;;;;4.00;3.70;;;;;;;2.38;100.00;96869.13;4954389;28;105075;-80
2023/10/16 02:43:05;;;;;;;4.93;3.23;;;;;;;2.39;100.00;96870.75;4951640;28;102024;-81
2023/10/16 02:45:33;;;;;;;4.90;3.40;;;;;;;2.32;100.00;96867.28;4951771;28;105271;-81
2023/10/16 02:48:01;;;;;;;4.50;4.10;;;;;;;2.39;100.00;96868.13;4951125;28;103997;-81
2023/10/16 02:50:29;;;;;;;4.47;3.50;;;;;;;2.43;100.00;96859.72;4953056;28;101772;-81
2023/10/16 02:52:56;;;;;;;4.10;3.73;;;;;;;2.45;100.00;96862.94;4951643;28;105220;-81
2023/10/16 02:55:31;;;;;;;3.97;3.57;;;;;;;2.43;100.00;96864.97;4950927;28;104750;-77
2023/10/16 02:58:04;;;;;;;4.63;4.10;;;;;;;2.50;100.00;96850.06;4951682;28;101833;-77
2023/10/16 03:00:37;;;;;;;4.60;4.20;;;;;;;2.54;100.00;96850.50;4951782;28;105161;-77
2023/10/16 03:03:09;;;;;;;4.73;4.30;;;;;;;2.55;100.00;96855.56;4954044;28;105783;-77
2023/10/16 03:05:37;;;;;;;6.27;4.70;;;;;;;2.46;100.00;96858.53;4951392;28;103759;-77
2023/10/16 03:08:18;;;;;;;5.40;4.80;;;;;;;2.58;100.00;96852.56;4950693;28;105513;-77
2023/10/16 03:10:54;;;;;;;4.90;4.50;;;;;;;2.68;100.00;96860.13;4967580;28;101932;-77
2023/10/16 03:13:30;;;;;;;5.57;5.00;;;;;;;2.78;100.00;96850.13;4951317;28;105051;-77
2023/10/16 03:16:07;;;;;;;5.43;4.93;;;;;;;2.83;100.00;96856.41;4950527;28;105949;-77
2023/10/16 03:18:43;;;;;;;5.60;5.10;;;;;;;2.90;100.00;96853.84;4951117;28;101844;-77
2023/10/16 03:24:36;;;;;;;6.37;5.77;;;;;;;3.05;100.00;96854.53;5072033;27;101551;-81
2023/10/16 03:27:27;;;;;;;5.57;5.10;;;;;;;2.90;100.00;96859.88;5065868;27;105802;-82
2023/10/16 03:30:02;;;;;;;4.90;4.50;;;;;;;2.74;100.00;96854.13;5067305;27;101773;-82
2023/10/16 03:32:53;;;;;;;4.20;3.90;;;;;;;2.74;100.00;96854.91;5066767;27;104427;-82
2023/10/16 03:35:26;;;;;;;5.77;4.97;;;;;;;2.95;100.00;96857.50;5065545;27;106142;-82
2023/10/16 03:38:01;;;;;;;5.80;5.20;;;;;;;3.10;100.00;96855.59;5067300;27;102227;-82
2023/10/16 03:40:35;;;;;;;9.10;5.40;;;;;;;3.20;100.00;96850.81;5066751;27;105624;-82
2023/10/16 03:43:08;;;;;;;5.90;5.40;;;;;;;3.20;100.00;96847.34;5066085;27;105728;-77
2023/10/16 03:45:39;;;;;;;5.57;5.17;;;;;;;3.11;100.00;96849.31;5070256;27;101865;-78
2023/10/16 03:48:09;;;;;;;5.40;4.90;;;;;;;3.11;100.00;96845.91;5066234;27;103915;-77
2023/10/16 03:50:38;;;;;;;5.57;4.97;;;;;;;3.23;100.00;96850.38;5066739;27;101847;-77
2023/10/16 03:53:20;;;;;;;5.07;4.67;;;;;;;3.25;100.00;96852.84;5067922;27;102614;-78
2023/10/16 03:55:53;;;;;;;5.17;4.77;;;;;;;3.10;100.00;96844.25;5066208;27;105744;-78
2023/10/16 03:58:20;;;;;;;9.77;5.63;;;;;;;3.06;100.00;96851.72;5066721;27;101794;-78
2023/10/16 04:00:57;;;;;;;6.47;5.77;;;;;;;3.10;100.00;96850.31;5067864;27;102828;-78
2023/10/16 04:03:26;;;;;;;6.27;5.67;;;;;;;3.20;100.00;96842.09;5067469;27;103091;-78
2023/10/16 04:05:56;;;;;;;16.37;5.73;;;;;;;3.27;100.00;96849.00;5068020;27;101832;-77
2023/10/16 04:08:25;;;;;;;7.03;6.33;;;;;;;3.30;100.00;96840.75;5069332;27;104819;-77
2023/10/16 04:11:02;;;;;;;5.97;5.43;;;;;;;3.26;100.00;96844.75;5067644;27;101867;-77
2023/10/16 04:13:45;;;;;;;6.33;5.83;;;;;;;3.27;100.00;96837.69;5068036;27;102679;-77
2023/10/16 04:16:29;;;;;;;7.27;6.30;;;;;;;3.30;100.00;96842.56;5065272;27;106110;-79
2023/10/16 04:19:28;;;;;;;14.70;6.67;;;;;;;3.25;100.00;96829.19;5066439;27;101845;-79
2023/10/16 04:21:50;;;;;;;34.10;7.10;;;;;;;3.15;100.00;96833.97;5067205;27;102997;-79
2023/10/16 04:24:40;;;;;;;6.23;5.63;;;;;;;3.13;100.00;96831.56;5066434;27;103040;-79
2023/10/16 04:32:42;;;;;;;9.87;8.10;;;;;;;3.22;100.00;96819.06;5068798;27;102646;-80
2023/10/16 04:37:55;;;;;;;9.07;7.43;;;;;;;3.32;100.00;96816.88;5051407;27;105699;-80
2023/10/16 04:43:37;;;;;;;11.27;10.17;;;;;;;3.28;100.00;96813.84;5051874;27;104924;-78
2023/10/16 04:46:17;;;;;;;29.97;6.37;;;;;;;3.11;100.00;96814.38;5051391;27;103218;-79
2023/10/16 04:48:50;;;;;;;105.50;9.23;;;;;;;3.04;100.00;96813.50;5050862;27;102430;-79
2023/10/16 04:51:24;;;;;;;24.13;8.23;;;;;;;2.87;100.00;96820.06;5050380;27;104170;-79
2023/10/16 04:54:16;;;;;;;48.87;8.33;;;;;;;2.94;100.00;96821.72;5050901;27;105451;-78
2023/10/16 04:59:59;;;;;;;54.90;9.40;;;;;;;3.13;100.00;96812.34;5050922;27;106010;-79
2023/10/16 05:02:40;;;;;;;33.90;8.33;;;;;;;3.12;100.00;96818.59;5051890;27;101896;-79
2023/10/16 05:08:06;;;;;;;15.53;8.63;;;;;;;3.45;100.00;96819.59;5051418;27;105382;-79
2023/10/16 05:13:39;;;;;;;8.27;7.47;;;;;;;3.30;100.00;96821.53;5051821;27;104801;-79
2023/10/16 05:19:03;;;;;;;7.90;7.20;;;;;;;3.38;100.00;96824.81;5051499;27;101983;-79
2023/10/16 06:14:12;;;;;;;10.43;9.43;;;;;;;3.50;100.00;96815.34;5049501;27;105035;-78
2023/10/16 06:16:40;;;;;;;10.47;9.37;;;;;;;3.82;100.00;96822.56;5050932;27;101768;-79
2023/10/16 06:19:14;;;;;;;11.57;10.37;;;;;;;3.79;100.00;96822.16;5050817;27;105755;-79
2023/10/16 06:21:46;;;;;;;12.10;10.57;;;;;;;3.79;100.00;96819.50;5049175;27;105436;-79
2023/10/16 06:24:28;;;;;;;11.83;10.63;;;;;;;3.82;100.00;96821.75;5050457;27;101687;-79
2023/10/16 06:26:55;;;;;;;14.93;10.57;;;;;;;3.80;100.00;96818.50;5050238;27;102894;-79
2023/10/16 06:29:24;;;;;;;14.67;11.13;;;;;;;3.98;100.00;96813.50;5048120;27;104356;-79
2023/10/16 06:31:53;;;;;;;15.73;12.87;;;;;;;4.11;100.00;96822.25;5052201;27;101981;-79
2023/10/16 06:34:22;;;;;;;24.57;11.17;;;;;;;4.02;100.00;96826.06;5048238;27;105383;-79
2023/10/16 06:36:51;;;;;;;13.70;10.43;;;;;;;4.08;100.00;96816.53;5048386;27;102016;-79
2023/10/16 06:39:28;;;;;;;13.10;10.93;;;;;;;4.09;100.00;96820.81;5049890;27;103098;-79
2023/10/16 06:41:55;;;;;;;17.33;10.47;;;;;;;4.11;100.00;96814.34;5048017;27;105646;-79
2023/10/16 06:44:28;;;;;;;38.60;11.33;;;;;;;4.16;100.00;96817.16;5048352;27;101937;-79
2023/10/16 06:46:59;;;;;;;12.50;9.70;;;;;;;4.26;100.00;96814.97;5048223;27;105166;-79
2023/10/16 06:49:27;;;;;;;19.57;12.00;;;;;;;4.30;100.00;96815.38;5047931;27;105436;-79
2023/10/16 06:51:57;;;;;;;12.83;11.53;;;;;;;4.40;100.00;96818.41;5047654;27;101769;-79
2023/10/16 06:54:26;;;;;;;11.30;10.20;;;;;;;4.52;100.00;96808.91;5050274;27;105236;-79
2023/10/16 06:56:53;;;;;;;22.37;10.20;;;;;;;4.57;100.00;96819.63;5048326;27;102155;-79
2023/10/16 06:59:21;;;;;;;12.47;10.80;;;;;;;4.82;100.00;96810.94;5047295;27;105031;-79
2023/10/16 07:01:50;;;;;;;19.03;10.73;;;;;;;4.65;100.00;96814.19;5047101;27;105041;-79
2023/10/16 07:04:19;;;;;;;37.23;10.17;;;;;;;4.26;100.00;96822.06;5048025;27;101888;-79
2023/10/16 07:06:48;;;;;;;16.40;9.53;;;;;;;4.21;100.00;96822.63;5048029;27;103821;-79
2023/10/16 07:09:17;;;;;;;23.13;10.30;;;;;;;4.25;100.00;96817.81;5032077;27;103840;-79
2023/10/16 07:11:44;;;;;;;10.27;9.17;;;;;;;4.30;100.00;96818.00;5048262;27;102193;-79
2023/10/16 07:14:17;;;;;;;12.00;8.73;;;;;;;4.22;100.00;96818.19;5049000;27;105186;-79
2023/10/16 07:16:44;;;;;;;21.20;9.00;;;;;;;4.21;100.00;96817.38;5051914;27;105509;-79
2023/10/16 07:19:16;;;;;;;17.23;8.73;;;;;;;4.11;100.00;96818.78;5048822;27;105223;-79
2023/10/16 07:21:48;;;;;;;20.97;8.73;;;;;;;4.12;100.00;96817.78;5048310;27;105604;-79
2023/10/16 07:24:17;;;;;;;21.37;9.00;;;;;;;4.03;100.00;96819.78;5048607;27;102072;-79
2023/10/16 07:26:45;;;;;;;12.93;8.70;;;;;;;4.21;100.00;96821.84;5048879;27;105399;-79
2023/10/16 07:29:13;;;;;;;10.97;8.03;;;;;;;4.20;100.00;96821.03;5049779;27;102906;-79
2023/10/16 07:31:40;;;;;;;12.30;8.20;;;;;;;4.18;100.00;96823.06;5048735;27;101897;-79
2023/10/16 07:34:07;;;;;;;8.23;7.37;;;;;;;4.22;100.00;96818.19;5048588;27;105647;-79
2023/10/16 07:36:34;;;;;;;14.30;7.50;;;;;;;4.21;100.00;96821.84;5048128;27;105559;-79
2023/10/16 07:39:03;;;;;;;34.33;8.07;;;;;;;4.04;100.00;96826.66;5051947;27;102402;-79
2023/10/16 07:41:33;;;;;;;22.13;8.37;;;;;;;4.10;100.00;96817.97;5048171;27;105827;-79
2023/10/16 07:44:04;;;;;;;14.80;7.40;;;;;;;4.13;100.00;96822.84;5048703;27;101884;-79
2023/10/16 07:46:31;;;;;;;13.90;7.63;;;;;;;4.17;100.00;96820.63;5048554;27;105033;-79
2023/10/16 07:49:09;;;;;;;19.93;7.40;;;;;;;4.07;100.00;96820.19;5048075;27;104494;-79
2023/10/16 07:51:36;;;;;;;25.23;7.87;;;;;;;4.12;100.00;96823.84;5048843;27;102201;-79
2023/10/16 07:54:07;;;;;;;11.73;7.27;;;;;;;4.21;100.00;96822.63;5048563;27;105748;-79
2023/10/16 07:56:35;;;;;;;13.17;7.53;;;;;;;4.14;100.00;96816.56;5047884;27;105541;-79
2023/10/16 07:59:10;;;;;;;16.93;7.90;;;;;;;4.14;100.00;96821.81;5053169;27;101826;-79
2023/10/16 08:01:48;;;;;;;13.90;7.60;;;;;;;4.21;100.00;96819.22;5047905;27;105084;-79
2023/10/16 08:04:34;;;;;;;30.43;7.80;;;;;;;4.21;100.00;96816.59;5049741;27;101706;-79
2023/10/16 08:07:05;;;;;;;16.07;7.60;;;;;;;4.17;100.00;96815.34;5050121;27;102996;-79
2023/10/16 08:12:19;;;;;;;14.77;7.90;;;;;;;4.07;100.00;96820.19;5050465;27;102055;-79
2023/10/16 08:14:51;;;;;;;21.77;10.20;;;;;;;4.13;100.00;96819.38;5051786;27;105704;-79
2023/10/16 08:17:23;;;;;;;15.00;8.00;;;;;;;4.17;100.00;96820.63;5050254;27;105718;-79
2023/10/16 08:19:51;;;;;;;9.90;7.43;;;;;;;4.12;100.00;96823.84;5051627;27;102032;-79
2023/10/16 08:22:18;;;;;;;11.20;8.30;;;;;;;4.29;100.00;96824.28;5054216;27;105389;-79
2023/10/16 08:24:57;;;;;;;13.97;8.60;;;;;;;4.36;100.00;96817.22;5051805;27;102083;-79
2023/10/16 08:30:17;;;;;;;12.07;8.07;;;;;;;4.53;100.00;96815.81;5050967;27;105473;-79
2023/10/16 08:32:53;;;;;;;28.97;8.10;;;;;;;4.56;100.00;96815.38;5051530;27;101865;-79
2023/10/16 08:35:20;;;;;;;25.60;8.00;;;;;;;4.42;100.00;96817.19;5051495;27;104974;-78
2023/10/16 08:37:56;;;;;;;7.93;7.23;;;;;;;4.67;100.00;96817.41;5050837;27;103928;-78
2023/10/16 08:40:32;;;;;;;29.67;8.33;;;;;;;4.55;100.00;96819.03;5051519;27;102074;-78
2023/10/16 08:43:03;;;;;;;16.87;9.00;;;;;;;4.66;100.00;96815.78;5051562;27;105143;-78
2023/10/16 08:45:32;;;;;;;11.60;8.27;;;;;;;4.83;100.00;96811.72;5055317;27;104072;-79
2023/10/16 08:48:01;;;;;;;12.90;8.87;;;;;;;4.99;100.00;96806.03;5051142;27;105305;-79
2023/10/16 08:50:40;;;;;;;9.03;7.80;;;;;;;4.98;100.00;96807.06;5050948;27;105541;-79
2023/10/16 08:53:30;;;;;;;8.77;7.73;;;;;;;5.00;100.00;96803.19;5051355;27;101779;-79
2023/10/16 08:55:58;;;;;;;8.17;7.37;;;;;;;5.20;100.00;96803.97;5051273;27;104126;-79
2023/10/16 08:58:27;;;;;;;10.67;7.83;;;;;;;5.07;100.00;96800.56;5050587;27;104796;-79
2023/10/16 09:00:57;;;;;;;14.80;7.63;;;;;;;5.08;100.00;96805.59;5052132;27;101854;-79
2023/10/16 09:03:26;;;;;;;12.40;7.33;;;;;;;5.16;100.00;96796.66;5050870;27;105768;-79
2023/10/16 09:05:54;;;;;;;9.63;7.27;;;;;;;5.06;100.00;96801.56;5050282;27;106044;-79
2023/10/16 09:08:22;;;;;;;10.50;7.47;;;;;;;5.14;100.00;96804.00;5055492;27;102255;-79
2023/10/16 09:10:50;;;;;;;9.00;6.87;;;;;;;5.25;100.00;96792.81;5048625;27;105650;-79
2023/10/16 09:13:18;;;;;;;8.70;7.47;;;;;;;5.38;100.00;96792.75;5050195;27;102258;-79
2023/10/16 09:15:46;;;;;;;10.03;7.83;;;;;;;5.49;100.00;96792.09;5049871;27;105930;-79
2023/10/16 09:18:16;;;;;;;7.63;6.90;;;;;;;5.55;100.00;96792.09;5049492;27;105163;-79
2023/10/16 09:20:44;;;;;;;8.47;7.67;;;;;;;5.64;100.00;96790.84;5050364;27;101986;-79
2023/10/16 09:23:14;;;;;;;7.43;6.73;;;;;;;5.84;100.00;96781.00;5049873;27;105268;-79
2023/10/16 09:25:45;;;;;;;15.80;11.43;;;;;;;6.07;100.00;96783.13;5049854;27;104428;-79
2023/10/16 09:28:18;;;;;;;8.53;7.60;;;;;;;6.25;100.00;96781.38;5049760;27;101847;-78
2023/10/16 09:30:48;;;;;;;9.70;8.07;;;;;;;6.25;100.00;96775.28;5054833;27;102682;-78
2023/10/16 09:33:16;;;;;;;9.63;7.90;;;;;;;6.42;100.00;96771.91;5050430;27;102101;-78
2023/10/16 09:35:45;;;;;;;9.00;7.30;;;;;;;6.57;100.00;96774.22;5050542;27;105168;-79
2023/10/16 09:38:17;;;;;;;7.10;6.40;;;;;;;6.47;100.00;96776.53;5049885;27;104149;-80
2023/10/16 09:40:45;;;;;;;7.57;6.40;;;;;;;6.37;100.00;96768.28;5050456;27;101800;-80
2023/10/16 09:43:24;;;;;;;6.83;6.23;;;;;;;6.50;100.00;96769.00;5050127;27;104896;-80
2023/10/16 09:46:33;;;;;;;16.37;13.77;;;;;;;6.67;100.00;96764.00;5049529;27;105650;-80
2023/10/16 09:48:47;;;;;;;6.57;5.93;;;;;;;6.55;100.00;96766.50;5048780;27;101968;-80
2023/10/16 09:51:14;;;;;;;5.70;5.20;;;;;;;6.42;100.00;96763.16;5050251;27;105381;-80
2023/10/16 09:53:41;;;;;;;5.73;5.13;;;;;;;6.63;100.00;96762.78;5054349;27;103533;-80
2023/10/16 09:56:12;;;;;;;6.03;5.47;;;;;;;6.90;100.00;96759.72;5049927;27;104283;-80
2023/10/16 09:58:44;;;;;;;5.27;4.77;;;;;;;6.54;100.00;96762.25;5049126;27;105530;-80
2023/10/16 10:01:20;;;;;;;5.97;5.37;;;;;;;6.91;100.00;96755.22;5049855;27;101857;-80
2023/10/16 10:03:47;;;;;;;5.37;4.67;;;;;;;7.46;100.00;96752.38;5050161;27;105483;-80
2023/10/16 10:06:20;;;;;;;6.20;5.60;;;;;;;7.33;100.00;96754.38;5049184;27;105693;-80
2023/10/16 10:09:20;;;;;;;5.87;5.27;;;;;;;7.18;100.00;96748.63;5050144;27;102643;-80
2023/10/16 10:11:58;;;;;;;5.60;5.10;;;;;;;6.75;100.00;96746.03;5049750;27;105651;-80
2023/10/16 10:14:32;;;;;;;6.90;5.63;;;;;;;6.77;100.00;96751.09;5052749;27;105959;-80
2023/10/16 10:17:04;;;;;;;5.93;5.40;;;;;;;6.60;100.00;96750.03;5049979;27;104388;-80
2023/10/16 10:19:35;;;;;;;6.50;5.90;;;;;;;6.82;100.00;96744.13;5049252;27;104953;-79
2023/10/16 10:22:15;;;;;;;6.43;5.80;;;;;;;7.22;100.00;96744.53;5049425;27;102063;-79
2023/10/16 10:24:48;;;;;;;6.60;5.90;;;;;;;7.28;100.00;96739.16;5049801;27;103940;-79
2023/10/16 10:27:16;;;;;;;6.13;5.53;;;;;;;7.69;100.00;96741.91;5049010;27;105417;-79
2023/10/16 10:29:47;;;;;;;6.00;5.50;;;;;;;7.85;100.00;96735.97;5051063;27;101982;-79
2023/10/16 10:32:16;;;;;;;6.40;5.50;;;;;;;7.81;100.00;96728.72;5049062;27;105203;-79
2023/10/16 10:34:47;;;;;;;6.10;5.00;;;;;;;7.76;100.00;96729.41;5049177;27;105420;-79
2023/10/16 10:37:48;;;;;;;5.40;4.90;;;;;;;7.97;100.00;96728.09;5052895;27;101795;-79
2023/10/16 10:40:21;;;;;;;4.67;4.27;;;;;;;8.44;100.00;96721.88;5048719;27;106138;-79
2023/10/16 10:42:53;;;;;;;4.83;4.43;;;;;;;8.76;100.00;96715.22;5050851;27;101753;-79
2023/10/16 10:45:33;;;;;;;5.27;4.37;;;;;;;8.68;100.00;96712.91;5049237;27;105169;-79
2023/10/16 10:48:10;;;;;;;4.40;4.00;;;;;;;9.25;100.00;96712.06;5048856;27;105238;-79
2023/10/16 10:50:39;;;;;;;4.77;4.30;;;;;;;9.60;100.00;96702.16;5049131;27;101883;-79
2023/10/16 10:53:13;;;;;;;4.60;4.03;;;;;;;9.68;100.00;96705.25;5049360;27;105407;-79
2023/10/16 10:55:55;;;;;;;4.93;4.30;;;;;;;9.81;100.00;96698.84;5048824;27;104989;-79
2023/10/16 10:58:24;;;;;;;4.33;3.93;;;;;;;10.19;100.00;96691.84;5049321;27;101914;-79
2023/10/16 11:01:00;;;;;;;4.93;4.03;;;;;;;10.37;100.00;96693.47;5053380;27;102781;-79
2023/10/16 11:03:44;;;;;;;3.43;3.23;;;;;;;9.19;100.00;96689.09;5049170;27;101855;-79
2023/10/16 11:06:18;;;;;;;4.40;4.00;;;;;;;10.23;100.00;96689.50;5050551;27;102728;-79
2023/10/16 11:08:47;;;;;;;3.97;3.57;;;;;;;10.42;100.00;96682.94;5048076;27;105454;-79
2023/10/16 11:11:15;;;;;;;4.53;3.67;;;;;;;10.00;100.00;96679.00;5048967;27;101801;-79
2023/10/16 11:13:46;;;;;;;4.10;3.70;;;;;;;10.18;100.00;96678.78;5048874;27;105686;-79
2023/10/16 11:16:14;;;;;;;5.10;3.43;;;;;;;10.61;100.00;96670.97;5049842;27;102938;-79
2023/10/16 11:18:57;;;;;;;3.70;3.40;;;;;;;10.83;100.00;96669.19;5048647;27;101964;-79
2023/10/16 11:21:25;;;;;;;3.60;3.30;;;;;;;11.17;100.00;96665.41;5048245;27;105463;-79
2023/10/16 11:23:55;;;;;;;5.67;3.90;;;;;;;10.58;100.00;96664.28;5050587;27;105402;-79
2023/10/16 11:26:24;;;;;;;4.93;3.87;;;;;;;10.05;100.00;96656.03;5048614;27;105223;-79
2023/10/16 11:28:54;;;;;;;4.00;3.10;;;;;;;10.05;100.00;96653.38;5049685;27;102826;-79
2023/10/16 11:31:21;;;;;;;5.20;3.20;;;;;;;10.96;100.00;96648.34;5048748;27;101996;-79
2023/10/16 11:34:02;;;;;;;4.90;3.17;;;;;;;11.75;100.00;96647.75;5048910;27;105271;-79
2023/10/16 11:36:30;;;;;;;3.53;3.20;;;;;;;11.86;100.00;96643.28;5048198;27;105660;-79
2023/10/16 11:38:59;;;;;;;3.53;2.70;;;;;;;12.00;100.00;96644.50;5048608;27;101933;-79
2023/10/16 11:41:26;;;;;;;3.77;3.00;;;;;;;11.27;100.00;96638.88;5048597;27;105288;-79
2023/10/16 11:43:54;;;;;;;3.07;2.80;;;;;;;11.30;100.00;96643.72;5047877;27;105321;-79
2023/10/16 11:46:29;;;;;;;4.23;2.70;;;;;;;11.47;100.00;96629.28;5057091;27;102225;-79
2023/10/16 11:51:45;;;;;;;3.13;2.87;;;;;;;12.12;100.00;96621.97;5051936;27;102030;-79
2023/10/16 11:54:16;;;;;;;3.03;2.83;;;;;;;12.16;100.00;96619.59;5052200;27;105065;-79
2023/10/16 11:56:43;;;;;;;3.20;2.70;;;;;;;12.43;100.00;96605.13;5051380;27;105396;-79
2023/10/16 11:59:12;;;;;;;2.80;2.60;;;;;;;12.79;100.00;96595.47;5052168;27;101946;-79
2023/10/16 12:01:39;;;;;;;3.13;2.70;;;;;;;13.11;100.00;96591.69;5051942;27;105275;-79
2023/10/16 12:04:09;;;;;;;4.60;2.90;;;;;;;12.20;100.00;96592.16;5050705;27;105359;-79
2023/10/16 12:06:38;;;;;;;3.50;3.17;;;;;;;11.52;100.00;96602.72;5051953;27;102247;-79
2023/10/16 12:09:06;;;;;;;3.13;2.80;;;;;;;11.07;100.00;96598.75;5054531;27;105277;-79
2023/10/16 12:11:33;;;;;;;4.57;2.93;;;;;;;11.46;100.00;96589.59;5051938;27;102233;-79
2023/10/16 12:14:00;;;;;;;4.47;3.10;;;;;;;11.76;100.00;96589.91;5051979;27;105482;-79
2023/10/16 12:16:27;;;;;;;3.00;2.70;;;;;;;11.90;100.00;96588.44;5051235;27;106057;-79
2023/10/16 12:18:56;;;;;;;3.10;2.90;;;;;;;12.31;100.00;96575.19;5051801;27;101885;-79
2023/10/16 12:21:25;;;;;;;3.30;2.70;;;;;;;12.94;100.00;96572.34;5051881;27;104283;-79
2023/10/16 12:23:52;;;;;;;3.37;3.10;;;;;;;11.69;100.00;96584.81;5050213;27;105321;-79
2023/10/16 12:26:19;;;;;;;3.30;3.00;;;;;;;12.23;100.00;96567.66;5051451;27;102170;-79
2023/10/16 12:28:46;;;;;;;4.27;2.90;;;;;;;12.25;100.00;96572.72;5054455;27;103753;-79
2023/10/16 12:31:13;;;;;;;3.10;2.87;;;;;;;11.91;100.00;96574.88;5051621;27;102013;-79
2023/10/16 12:33:40;;;;;;;3.40;3.10;;;;;;;12.10;100.00;96560.09;5051472;27;105584;-79
2023/10/16 12:36:10;;;;;;;3.03;2.80;;;;;;;12.84;100.00;96560.81;5050852;27;105825;-79
2023/10/16 12:38:39;;;;;;;3.13;2.60;;;;;;;12.86;100.00;96556.03;5051395;27;101945;-79
2023/10/16 12:41:08;;;;;;;3.63;2.83;;;;;;;11.89;100.00;96557.53;5051380;27;105134;-79
2023/10/16 12:43:36;;;;;;;2.93;2.43;;;;;;;12.25;100.00;96559.41;5050829;27;105731;-79
2023/10/16 12:46:03;;;;;;;3.43;2.27;;;;;;;12.55;100.00;96560.41;5051284;27;102353;-78
2023/10/16 12:48:30;;;;;;;3.00;1.70;;;;;;;12.85;100.00;96555.22;5051463;27;105285;-78
2023/10/16 12:51:00;;;;;;;2.40;1.50;;;;;;;12.85;100.00;96551.72;5054111;27;105465;-78
2023/10/16 12:53:28;;;;;;;1.80;1.40;;;;;;;12.98;100.00;96541.41;5051184;27;103926;-78
2023/10/16 12:55:58;;;;;;;3.80;1.50;;;;;;;13.54;100.00;96539.72;5049981;27;105843;-78
2023/10/16 12:58:27;;;;;;;1.30;1.20;;;;;;;13.73;100.00;96543.50;5051071;27;102082;-78
2023/10/16 13:00:57;;;;;;;1.27;0.80;;;;;;;14.32;100.00;96542.69;5051102;27;105338;-78
2023/10/16 13:03:24;;;;;;;1.77;0.97;;;;;;;14.81;92.17;96537.47;5050601;27;105483;-78
2023/10/16 13:05:52;;;;;;;1.93;1.03;;;;;;;15.25;97.62;96533.81;5051041;27;101925;-78
2023/10/16 13:08:21;;;;;;;1.73;1.23;;;;;;;15.23;100.00;96535.16;5050847;27;105299;-78
2023/10/16 13:10:50;;;;;;;2.00;1.50;;;;;;;15.96;100.00;96531.53;5050133;27;105713;-78
2023/10/16 13:13:21;;;;;;;1.77;1.00;;;;;;;16.19;89.50;96536.16;5054433;27;101877;-78